Time;durP1;ratioP1;P1;durP2;ratioP2;P2;SDS_P1;SDS_P2;PMS_P1;PMS_P2;Temp;Humidity;BMP_temperature;BMP_pressure;BME280_temperature;BME280_humidity;BME280_pressure;Samples;Min_cycle;Max_cycle;Signal;HPM_P1;HPM_P2
2022/11/20 00:00:00;;;;;;;25.87;15.67;;;;;;;;;;5028956;28;20029;-76
2022/11/20 00:02:26;;;;;;;22.97;14.73;;;;;;;;;;5030088;28;20025;-77
2022/11/20 00:04:52;;;;;;;23.77;14.90;;;;;;;;;;5016851;28;20045;-77
2022/11/20 00:07:18;;;;;;;24.43;15.07;;;;;;;;;;5014839;28;20026;-76
2022/11/20 00:09:44;;;;;;;25.33;15.57;;;;;;;;;;5018077;28;20018;-77
2022/11/20 00:12:10;;;;;;;29.07;15.40;;;;;;;;;;5017865;28;20468;-77
2022/11/20 00:14:36;;;;;;;25.53;15.10;;;;;;;;;;5014078;28;20779;-76
2022/11/20 00:17:02;;;;;;;31.33;16.47;;;;;;;;;;5026016;28;20040;-77
2022/11/20 00:19:28;;;;;;;23.40;15.20;;;;;;;;;;5025724;28;20025;-77
2022/11/20 00:21:55;;;;;;;29.53;15.07;;;;;;;;;;5017783;28;20033;-78
2022/11/20 00:24:21;;;;;;;23.33;15.17;;;;;;;;;;5029358;28;20371;-77
2022/11/20 00:26:49;;;;;;;25.87;14.93;;;;;;;;;;5018696;28;20057;-77
2022/11/20 00:29:18;;;;;;;25.23;15.83;;;;;;;;;;5015557;28;20045;-77
2022/11/20 00:31:44;;;;;;;24.23;15.37;;;;;;;;;;5015550;28;20030;-76
2022/11/20 00:34:10;;;;;;;24.97;16.33;;;;;;;;;;5017163;28;20030;-77
2022/11/20 00:36:36;;;;;;;26.40;15.37;;;;;;;;;;5028856;28;20034;-77
2022/11/20 00:39:05;;;;;;;24.10;15.77;;;;;;;;;;5014867;28;20165;-76
2022/11/20 00:41:31;;;;;;;25.10;15.97;;;;;;;;;;5028542;28;20041;-77
2022/11/20 00:43:57;;;;;;;26.67;16.63;;;;;;;;;;5031027;28;20029;-77
2022/11/20 00:46:24;;;;;;;26.57;15.40;;;;;;;;;;5016687;28;20037;-77
2022/11/20 00:48:50;;;;;;;22.93;14.73;;;;;;;;;;5032039;28;20033;-75
2022/11/20 00:51:17;;;;;;;24.83;14.83;;;;;;;;;;5031021;28;20144;-77
2022/11/20 00:53:43;;;;;;;21.90;14.07;;;;;;;;;;5028362;28;20450;-78
2022/11/20 00:56:13;;;;;;;23.57;14.40;;;;;;;;;;5015868;28;20055;-77
2022/11/20 00:58:40;;;;;;;30.07;16.97;;;;;;;;;;5027593;28;20029;-77
2022/11/20 01:01:11;;;;;;;24.50;15.40;;;;;;;;;;5019743;28;20025;-77
2022/11/20 01:03:38;;;;;;;24.77;15.87;;;;;;;;;;5017157;28;20029;-77
2022/11/20 01:06:06;;;;;;;26.00;16.07;;;;;;;;;;5021904;28;20060;-77
2022/11/20 01:08:33;;;;;;;24.57;15.33;;;;;;;;;;5034737;28;20382;-77
2022/11/20 01:11:04;;;;;;;26.33;14.83;;;;;;;;;;5022174;28;20368;-76
2022/11/20 01:13:37;;;;;;;24.20;15.83;;;;;;;;;;5033873;28;20036;-77
2022/11/20 01:16:06;;;;;;;23.17;14.67;;;;;;;;;;5033121;28;20029;-77
2022/11/20 01:18:32;;;;;;;29.23;15.17;;;;;;;;;;5018860;28;20037;-77
2022/11/20 01:21:06;;;;;;;25.03;16.37;;;;;;;;;;5029301;28;20029;-77
2022/11/20 01:23:35;;;;;;;27.20;15.57;;;;;;;;;;5029514;28;20036;-78
2022/11/20 01:26:02;;;;;;;24.07;14.40;;;;;;;;;;5019782;28;20045;-77
2022/11/20 01:28:29;;;;;;;23.27;15.13;;;;;;;;;;5020431;28;20049;-77
2022/11/20 01:30:57;;;;;;;26.23;15.00;;;;;;;;;;5021437;28;20037;-77
2022/11/20 01:33:23;;;;;;;24.40;15.33;;;;;;;;;;5030119;28;20030;-77
2022/11/20 01:35:49;;;;;;;24.83;15.30;;;;;;;;;;5030175;28;20041;-77
2022/11/20 01:38:16;;;;;;;24.07;15.23;;;;;;;;;;5030713;28;20026;-77
2022/11/20 01:40:42;;;;;;;22.60;14.80;;;;;;;;;;5031550;28;20327;-77
2022/11/20 01:43:21;;;;;;;26.50;15.83;;;;;;;;;;5017879;28;20116;-77
2022/11/20 01:46:06;;;;;;;23.97;15.23;;;;;;;;;;5033903;28;20036;-77
2022/11/20 01:49:01;;;;;;;24.60;14.80;;;;;;;;;;5032998;28;20029;-77
2022/11/20 01:51:32;;;;;;;25.37;15.83;;;;;;;;;;5008124;28;20037;-77
2022/11/20 01:53:59;;;;;;;26.80;15.77;;;;;;;;;;5029032;28;20042;-77
2022/11/20 01:56:26;;;;;;;33.20;16.37;;;;;;;;;;5032248;28;20034;-77
2022/11/20 01:58:57;;;;;;;24.70;15.43;;;;;;;;;;5030574;28;20033;-78
2022/11/20 02:01:23;;;;;;;25.50;15.83;;;;;;;;;;5021690;28;20022;-77
2022/11/20 02:03:52;;;;;;;26.07;16.23;;;;;;;;;;5031750;28;20445;-78
2022/11/20 02:06:18;;;;;;;25.27;15.33;;;;;;;;;;5020364;28;20029;-77
2022/11/20 02:08:44;;;;;;;27.37;16.40;;;;;;;;;;5016923;28;20026;-76
2022/11/20 02:11:12;;;;;;;27.37;16.03;;;;;;;;;;5019987;28;20021;-77
2022/11/20 02:13:44;;;;;;;24.80;15.20;;;;;;;;;;5018210;28;20083;-76
2022/11/20 02:16:19;;;;;;;24.45;15.63;;;;;;;;;;5017647;28;20041;-77
2022/11/20 02:18:45;;;;;;;26.07;16.20;;;;;;;;;;5017935;28;20022;-76
2022/11/20 02:21:18;;;;;;;23.17;15.40;;;;;;;;;;5021270;28;20033;-77
2022/11/20 02:24:03;;;;;;;26.20;15.90;;;;;;;;;;5029320;28;20075;-78
2022/11/20 02:26:31;;;;;;;25.17;15.10;;;;;;;;;;5029444;28;20041;-76
2022/11/20 02:28:57;;;;;;;26.70;15.50;;;;;;;;;;5031640;28;20034;-77
2022/11/20 02:31:23;;;;;;;25.40;15.80;;;;;;;;;;5016773;28;20029;-76
2022/11/20 02:33:54;;;;;;;25.03;15.50;;;;;;;;;;5029348;28;20033;-76
2022/11/20 02:36:20;;;;;;;26.77;15.53;;;;;;;;;;5032063;28;20504;-77
2022/11/20 02:38:50;;;;;;;24.53;14.90;;;;;;;;;;5029940;28;20026;-77
2022/11/20 02:41:16;;;;;;;26.37;16.43;;;;;;;;;;5018826;28;20105;-77
2022/11/20 02:43:42;;;;;;;24.70;15.60;;;;;;;;;;5019995;28;20113;-76
2022/11/20 02:46:08;;;;;;;22.20;14.07;;;;;;;;;;5013350;28;20429;-77
2022/11/20 02:48:34;;;;;;;25.13;14.93;;;;;;;;;;5017802;28;20032;-76
2022/11/20 02:51:00;;;;;;;26.00;16.23;;;;;;;;;;5021087;28;20125;-77
2022/11/20 02:53:26;;;;;;;27.30;16.10;;;;;;;;;;5018929;28;20041;-77
2022/11/20 02:55:52;;;;;;;25.27;16.07;;;;;;;;;;5018983;28;20041;-77
2022/11/20 02:58:18;;;;;;;29.27;17.07;;;;;;;;;;5016941;28;20029;-77
2022/11/20 03:00:44;;;;;;;24.70;15.50;;;;;;;;;;5027023;28;20042;-77
2022/11/20 03:03:10;;;;;;;26.83;17.23;;;;;;;;;;5016934;28;20623;-77
2022/11/20 03:05:39;;;;;;;26.73;16.67;;;;;;;;;;5018159;28;20029;-77
2022/11/20 03:08:05;;;;;;;27.47;16.33;;;;;;;;;;5029663;28;20026;-77
2022/11/20 03:10:31;;;;;;;26.10;15.60;;;;;;;;;;5028749;28;20039;-77
2022/11/20 03:12:57;;;;;;;23.13;15.70;;;;;;;;;;5029623;28;20041;-77
2022/11/20 03:15:23;;;;;;;26.07;15.90;;;;;;;;;;5019391;28;20026;-76
2022/11/20 03:17:49;;;;;;;24.90;15.03;;;;;;;;;;5025937;28;20038;-77
2022/11/20 03:20:15;;;;;;;26.30;15.20;;;;;;;;;;5035418;28;20029;-78
2022/11/20 03:22:41;;;;;;;25.37;15.83;;;;;;;;;;5018652;28;20079;-76
2022/11/20 03:25:08;;;;;;;25.90;15.87;;;;;;;;;;5030570;28;20374;-78
2022/11/20 03:27:34;;;;;;;25.83;16.07;;;;;;;;;;5017010;28;20064;-78
2022/11/20 03:30:01;;;;;;;24.20;15.00;;;;;;;;;;5031464;28;20034;-77
2022/11/20 03:32:27;;;;;;;23.53;15.27;;;;;;;;;;5016603;28;20038;-77
2022/11/20 03:34:53;;;;;;;25.87;15.37;;;;;;;;;;5018395;28;20117;-77
2022/11/20 03:37:19;;;;;;;23.37;15.73;;;;;;;;;;5019937;28;20109;-77
2022/11/20 03:39:45;;;;;;;25.33;15.33;;;;;;;;;;5017713;28;20453;-77
2022/11/20 03:42:44;;;;;;;23.53;15.30;;;;;;;;;;5016318;28;20033;-77
2022/11/20 03:44:57;;;;;;;28.90;16.03;;;;;;;;;;5017029;28;20472;-77
2022/11/20 03:47:23;;;;;;;24.80;15.17;;;;;;;;;;5017717;28;20029;-77
2022/11/20 03:49:49;;;;;;;25.57;16.07;;;;;;;;;;5016845;28;20044;-76
2022/11/20 03:52:15;;;;;;;27.63;16.10;;;;;;;;;;5018835;28;20033;-77
2022/11/20 03:54:41;;;;;;;26.10;15.37;;;;;;;;;;5018107;28;20037;-78
2022/11/20 03:57:07;;;;;;;28.40;16.80;;;;;;;;;;5017649;28;20034;-77
2022/11/20 03:59:33;;;;;;;26.70;15.97;;;;;;;;;;5025862;28;20469;-77
2022/11/20 04:01:59;;;;;;;28.57;15.90;;;;;;;;;;5029414;28;20040;-77
2022/11/20 04:04:25;;;;;;;25.73;15.40;;;;;;;;;;5025544;28;20076;-78
2022/11/20 04:06:51;;;;;;;25.50;16.07;;;;;;;;;;5016807;28;20044;-76
2022/11/20 04:09:17;;;;;;;23.60;15.50;;;;;;;;;;5027311;28;20033;-77
2022/11/20 04:11:43;;;;;;;25.43;16.17;;;;;;;;;;5027059;28;20029;-78
2022/11/20 04:14:16;;;;;;;27.37;16.60;;;;;;;;;;5017619;28;20025;-77
2022/11/20 04:16:42;;;;;;;27.80;16.53;;;;;;;;;;5028407;28;20064;-78
2022/11/20 04:19:13;;;;;;;27.47;16.00;;;;;;;;;;5017859;28;20111;-76
2022/11/20 04:21:39;;;;;;;28.87;17.10;;;;;;;;;;5016318;28;20026;-78
2022/11/20 04:24:05;;;;;;;27.03;16.97;;;;;;;;;;5017720;28;20021;-76
2022/11/20 04:26:31;;;;;;;26.93;16.93;;;;;;;;;;5011267;28;20100;-77
2022/11/20 04:28:57;;;;;;;31.17;18.53;;;;;;;;;;5016222;28;20366;-77
2022/11/20 04:31:25;;;;;;;28.37;17.50;;;;;;;;;;5016853;28;20030;-77
2022/11/20 04:33:51;;;;;;;31.80;17.53;;;;;;;;;;5015476;28;20061;-77
2022/11/20 04:36:20;;;;;;;32.67;18.73;;;;;;;;;;5015978;28;20045;-77
2022/11/20 04:38:48;;;;;;;31.93;18.87;;;;;;;;;;5024784;28;20264;-77
2022/11/20 04:41:18;;;;;;;30.30;18.20;;;;;;;;;;5032132;28;20276;-77
2022/11/20 04:43:48;;;;;;;32.83;18.80;;;;;;;;;;5017493;28;20360;-77
2022/11/20 04:46:14;;;;;;;31.97;17.67;;;;;;;;;;5016532;28;20100;-77
2022/11/20 04:48:40;;;;;;;34.60;17.73;;;;;;;;;;5030686;28;20026;-77
2022/11/20 04:51:06;;;;;;;27.37;17.13;;;;;;;;;;5030538;28;20466;-78
2022/11/20 04:53:32;;;;;;;27.75;17.50;;;;;;;;;;4979975;28;1092488;-78
2022/11/20 04:56:02;;;;;;;28.73;17.83;;;;;;;;;;5025486;28;20542;-78
2022/11/20 04:58:28;;;;;;;25.80;16.17;;;;;;;;;;5028715;28;20040;-76
2022/11/20 05:00:54;;;;;;;27.20;17.17;;;;;;;;;;5015730;28;20746;-76
2022/11/20 05:03:20;;;;;;;26.63;16.97;;;;;;;;;;5017275;28;20288;-77
2022/11/20 05:05:47;;;;;;;28.33;17.63;;;;;;;;;;5028412;28;20037;-77
2022/11/20 05:08:14;;;;;;;26.83;16.23;;;;;;;;;;5018261;28;20081;-76
2022/11/20 05:10:40;;;;;;;27.33;16.77;;;;;;;;;;5018783;28;20060;-77
2022/11/20 05:13:06;;;;;;;26.17;16.87;;;;;;;;;;5019507;28;20037;-77
2022/11/20 05:15:32;;;;;;;25.53;16.10;;;;;;;;;;5027993;28;20501;-77
2022/11/20 05:18:01;;;;;;;28.10;17.10;;;;;;;;;;5015001;28;20026;-76
2022/11/20 05:20:27;;;;;;;25.53;15.63;;;;;;;;;;5014786;28;20030;-77
2022/11/20 05:22:53;;;;;;;28.57;17.10;;;;;;;;;;5028079;28;20026;-77
2022/11/20 05:25:19;;;;;;;24.60;15.03;;;;;;;;;;5027683;28;20026;-77
2022/11/20 05:27:45;;;;;;;27.03;16.57;;;;;;;;;;5027171;28;20037;-77
2022/11/20 05:30:11;;;;;;;24.90;15.13;;;;;;;;;;5016840;28;20038;-76
2022/11/20 05:32:37;;;;;;;25.70;15.50;;;;;;;;;;5018664;28;20064;-78
2022/11/20 05:35:06;;;;;;;28.50;16.03;;;;;;;;;;5018898;28;20069;-76
2022/11/20 05:37:32;;;;;;;26.93;16.17;;;;;;;;;;5016448;28;20037;-77
2022/11/20 05:40:00;;;;;;;26.07;15.87;;;;;;;;;;5016076;28;20116;-77
2022/11/20 05:42:32;;;;;;;25.87;16.97;;;;;;;;;;5027665;28;20033;-77
2022/11/20 05:45:02;;;;;;;25.27;15.68;;;;;;;;;;5026009;28;20092;-76
2022/11/20 05:47:31;;;;;;;27.30;17.33;;;;;;;;;;5032734;28;20044;-77
2022/11/20 05:49:57;;;;;;;27.00;16.10;;;;;;;;;;5018266;28;20092;-77
2022/11/20 05:52:23;;;;;;;29.37;16.80;;;;;;;;;;5015784;28;20123;-77
2022/11/20 05:54:49;;;;;;;24.20;15.97;;;;;;;;;;5016938;28;20053;-77
2022/11/20 05:57:16;;;;;;;26.60;17.00;;;;;;;;;;5020582;28;20120;-76
2022/11/20 05:59:42;;;;;;;28.97;17.00;;;;;;;;;;5021307;28;20044;-77
2022/11/20 06:02:08;;;;;;;31.33;17.40;;;;;;;;;;5018136;28;20092;-76
2022/11/20 06:04:34;;;;;;;25.77;15.57;;;;;;;;;;5030357;28;20141;-76
2022/11/20 06:07:00;;;;;;;28.23;16.93;;;;;;;;;;5018333;28;20098;-77
2022/11/20 06:09:26;;;;;;;29.53;17.00;;;;;;;;;;5031678;28;20049;-77
2022/11/20 06:11:52;;;;;;;25.23;16.70;;;;;;;;;;5017961;28;20376;-77
2022/11/20 06:14:18;;;;;;;25.90;16.93;;;;;;;;;;5021423;28;20068;-77
2022/11/20 06:16:46;;;;;;;26.23;16.60;;;;;;;;;;5016540;28;20052;-77
2022/11/20 06:19:15;;;;;;;27.87;17.40;;;;;;;;;;5030976;28;20028;-77
2022/11/20 06:21:41;;;;;;;26.10;16.97;;;;;;;;;;5018693;28;20029;-77
2022/11/20 06:24:09;;;;;;;28.27;17.57;;;;;;;;;;5029157;28;20121;-77
2022/11/20 06:26:35;;;;;;;29.07;17.90;;;;;;;;;;5016850;28;20030;-76
2022/11/20 06:29:01;;;;;;;28.70;17.97;;;;;;;;;;5030551;28;20056;-77
2022/11/20 06:31:27;;;;;;;33.17;18.30;;;;;;;;;;5016027;28;20613;-77
2022/11/20 06:33:54;;;;;;;28.27;17.93;;;;;;;;;;5020030;28;20033;-77
2022/11/20 06:36:21;;;;;;;29.60;18.50;;;;;;;;;;5029859;28;20057;-78
2022/11/20 06:38:47;;;;;;;31.40;19.33;;;;;;;;;;5019517;28;20030;-77
2022/11/20 06:41:17;;;;;;;31.67;18.73;;;;;;;;;;5018712;28;20068;-77
2022/11/20 06:43:43;;;;;;;29.27;18.43;;;;;;;;;;5031051;28;20122;-77
2022/11/20 06:46:10;;;;;;;29.50;17.60;;;;;;;;;;5036099;28;20037;-77
2022/11/20 06:48:38;;;;;;;28.83;17.77;;;;;;;;;;5016501;28;20025;-77
2022/11/20 06:51:05;;;;;;;31.80;19.17;;;;;;;;;;5030691;28;20042;-76
2022/11/20 06:53:31;;;;;;;33.17;20.33;;;;;;;;;;5030410;28;20033;-77
2022/11/20 06:56:00;;;;;;;32.17;18.33;;;;;;;;;;5018613;28;20095;-77
2022/11/20 06:58:30;;;;;;;33.10;19.87;;;;;;;;;;5019102;28;20029;-77
2022/11/20 07:01:00;;;;;;;31.47;19.00;;;;;;;;;;5018775;28;20026;-77
2022/11/20 07:03:28;;;;;;;36.63;20.67;;;;;;;;;;5018760;28;20029;-77
2022/11/20 07:06:03;;;;;;;33.73;20.43;;;;;;;;;;5029407;28;20442;-77
2022/11/20 07:08:36;;;;;;;29.63;18.30;;;;;;;;;;5030281;28;20029;-77
2022/11/20 07:11:03;;;;;;;33.33;20.05;;;;;;;;;;5031541;28;20030;-78
2022/11/20 07:13:29;;;;;;;31.00;18.50;;;;;;;;;;5030632;28;20041;-78
2022/11/20 07:15:59;;;;;;;32.63;20.90;;;;;;;;;;5027776;28;20150;-78
2022/11/20 07:18:25;;;;;;;34.50;20.17;;;;;;;;;;5017660;28;20036;-77
2022/11/20 07:20:51;;;;;;;34.07;20.73;;;;;;;;;;5031577;28;20033;-77
2022/11/20 07:23:20;;;;;;;37.83;20.83;;;;;;;;;;5016143;28;20033;-77
2022/11/20 07:25:46;;;;;;;35.07;20.70;;;;;;;;;;5029600;28;20100;-77
2022/11/20 07:28:13;;;;;;;36.40;21.37;;;;;;;;;;5017310;28;20465;-77
2022/11/20 07:30:39;;;;;;;33.93;20.13;;;;;;;;;;5019881;28;20041;-78
2022/11/20 07:33:06;;;;;;;33.30;19.80;;;;;;;;;;5030119;28;20026;-78
2022/11/20 07:35:32;;;;;;;35.23;19.27;;;;;;;;;;5025442;28;20029;-77
2022/11/20 07:38:00;;;;;;;31.43;18.97;;;;;;;;;;5017813;28;20022;-77
2022/11/20 07:40:27;;;;;;;34.63;20.07;;;;;;;;;;5017901;28;20030;-77
2022/11/20 07:42:54;;;;;;;33.53;19.83;;;;;;;;;;5017682;28;20025;-77
2022/11/20 07:45:20;;;;;;;31.37;19.50;;;;;;;;;;5028980;28;20041;-78
2022/11/20 07:47:46;;;;;;;36.83;20.80;;;;;;;;;;5019114;28;20037;-76
2022/11/20 07:50:13;;;;;;;38.43;20.33;;;;;;;;;;5020597;28;21710;-78
2022/11/20 07:52:40;;;;;;;33.87;19.63;;;;;;;;;;5031305;28;20044;-78
2022/11/20 07:55:06;;;;;;;33.00;20.80;;;;;;;;;;5019411;28;20475;-76
2022/11/20 07:57:32;;;;;;;35.80;21.33;;;;;;;;;;5018324;28;20029;-76
2022/11/20 07:59:58;;;;;;;33.93;20.73;;;;;;;;;;5031550;28;20029;-78
2022/11/20 08:02:24;;;;;;;33.00;20.10;;;;;;;;;;5018002;28;20053;-77
2022/11/20 08:04:53;;;;;;;34.93;20.07;;;;;;;;;;5018050;28;20029;-78
2022/11/20 08:07:19;;;;;;;37.60;22.00;;;;;;;;;;5031024;28;20041;-77
2022/11/20 08:09:45;;;;;;;33.33;21.03;;;;;;;;;;5014860;28;20029;-77
2022/11/20 08:15:10;;;;;;;34.57;20.10;;;;;;;;;;5009284;28;20547;-77
2022/11/20 08:17:36;;;;;;;34.00;20.53;;;;;;;;;;5015456;28;20117;-77
2022/11/20 08:20:02;;;;;;;35.57;19.30;;;;;;;;;;5029861;28;20026;-78
2022/11/20 08:22:28;;;;;;;35.47;20.90;;;;;;;;;;5015960;28;20036;-76
2022/11/20 08:24:54;;;;;;;30.77;17.40;;;;;;;;;;5020382;28;20072;-77
2022/11/20 08:27:20;;;;;;;28.00;16.80;;;;;;;;;;5028378;28;20029;-77
2022/11/20 08:29:48;;;;;;;24.90;15.10;;;;;;;;;;5018228;28;20446;-76
2022/11/20 08:32:14;;;;;;;28.30;15.23;;;;;;;;;;5031308;28;20026;-77
2022/11/20 08:34:40;;;;;;;27.33;16.70;;;;;;;;;;5016003;28;20034;-77
2022/11/20 08:37:06;;;;;;;27.83;15.57;;;;;;;;;;5015029;28;20087;-77
2022/11/20 08:39:32;;;;;;;28.10;17.13;;;;;;;;;;5027884;28;20030;-77
2022/11/20 08:41:58;;;;;;;24.70;15.50;;;;;;;;;;5026882;28;20387;-76
2022/11/20 08:44:24;;;;;;;24.43;14.43;;;;;;;;;;5019869;28;20014;-77
2022/11/20 08:46:50;;;;;;;24.07;13.33;;;;;;;;;;5015379;28;20121;-77
2022/11/20 08:49:17;;;;;;;21.20;12.27;;;;;;;;;;5027401;28;20121;-77
2022/11/20 08:51:51;;;;;;;20.27;12.80;;;;;;;;;;5029233;28;20056;-77
2022/11/20 08:54:19;;;;;;;26.07;15.03;;;;;;;;;;5026378;28;20045;-75
2022/11/20 08:56:45;;;;;;;19.07;12.67;;;;;;;;;;5031487;28;20026;-77
2022/11/20 08:59:11;;;;;;;21.73;13.53;;;;;;;;;;5017087;28;20030;-76
2022/11/20 09:01:37;;;;;;;17.77;11.87;;;;;;;;;;5019378;28;20104;-76
2022/11/20 09:04:04;;;;;;;16.67;10.37;;;;;;;;;;5018509;28;20058;-76
2022/11/20 09:06:30;;;;;;;19.67;12.37;;;;;;;;;;5027340;28;20045;-77
2022/11/20 09:08:56;;;;;;;19.30;11.83;;;;;;;;;;5021322;28;20030;-75
2022/11/20 09:11:23;;;;;;;20.33;13.03;;;;;;;;;;5025427;28;21006;-74
2022/11/20 09:13:51;;;;;;;22.70;14.07;;;;;;;;;;5012378;28;20029;-77
2022/11/20 09:16:17;;;;;;;23.27;14.00;;;;;;;;;;5023504;28;20034;-75
2022/11/20 09:18:43;;;;;;;27.67;15.50;;;;;;;;;;5013224;28;20033;-76
2022/11/20 09:21:10;;;;;;;25.50;15.30;;;;;;;;;;5016081;28;20057;-76
2022/11/20 09:23:37;;;;;;;26.90;15.10;;;;;;;;;;5030645;28;20120;-77
2022/11/20 09:26:07;;;;;;;26.60;15.73;;;;;;;;;;5028080;28;20030;-76
2022/11/20 09:28:36;;;;;;;29.07;15.93;;;;;;;;;;5018632;28;20037;-77
2022/11/20 09:31:05;;;;;;;26.60;15.87;;;;;;;;;;5031330;28;20030;-76
2022/11/20 09:33:31;;;;;;;26.40;16.03;;;;;;;;;;5028286;28;20030;-77
2022/11/20 09:35:57;;;;;;;24.23;15.03;;;;;;;;;;5018918;28;20041;-76
2022/11/20 09:38:23;;;;;;;23.80;14.53;;;;;;;;;;5018858;28;20122;-77
2022/11/20 09:41:03;;;;;;;22.17;13.63;;;;;;;;;;5018373;28;20844;-77
2022/11/20 09:43:40;;;;;;;23.10;13.80;;;;;;;;;;5027326;28;20080;-77
2022/11/20 09:46:17;;;;;;;25.67;14.50;;;;;;;;;;5029000;28;20029;-76
2022/11/20 09:48:52;;;;;;;23.10;14.17;;;;;;;;;;5035298;28;20041;-76
2022/11/20 09:51:31;;;;;;;25.33;14.53;;;;;;;;;;5030197;28;20033;-77
2022/11/20 09:54:06;;;;;;;22.53;14.77;;;;;;;;;;5030016;28;20096;-77
2022/11/20 09:56:34;;;;;;;23.57;15.00;;;;;;;;;;5022183;28;20403;-78
2022/11/20 09:59:25;;;;;;;24.73;14.63;;;;;;;;;;5027935;28;20960;-76
2022/11/20 10:01:51;;;;;;;27.80;16.20;;;;;;;;;;5031806;28;20030;-76
2022/11/20 10:04:18;;;;;;;25.20;15.73;;;;;;;;;;5031251;28;20033;-75
2022/11/20 10:06:51;;;;;;;24.63;15.20;;;;;;;;;;5017840;28;20043;-76
2022/11/20 10:09:23;;;;;;;25.30;15.50;;;;;;;;;;5030485;28;20083;-74
2022/11/20 10:12:08;;;;;;;25.30;15.25;;;;;;;;;;5018952;28;20313;-75
2022/11/20 10:14:56;;;;;;;26.63;16.47;;;;;;;;;;5028932;28;20136;-76
2022/11/20 10:17:47;;;;;;;26.60;15.97;;;;;;;;;;5023302;28;20088;-78
2022/11/20 10:20:32;;;;;;;26.77;15.73;;;;;;;;;;5028695;28;20022;-78
2022/11/20 10:23:14;;;;;;;27.20;16.43;;;;;;;;;;5035061;28;20030;-76
2022/11/20 10:25:46;;;;;;;26.13;16.42;;;;;;;;;;5031621;28;20125;-77
2022/11/20 10:28:40;;;;;;;28.87;17.23;;;;;;;;;;5019120;28;20036;-76
2022/11/20 10:31:10;;;;;;;29.27;17.43;;;;;;;;;;5020341;28;20025;-77
2022/11/20 10:33:39;;;;;;;27.47;16.50;;;;;;;;;;5018536;28;20355;-74
2022/11/20 10:36:08;;;;;;;32.20;17.57;;;;;;;;;;5019967;28;20036;-76
2022/11/20 10:38:37;;;;;;;31.33;18.03;;;;;;;;;;5028896;28;20026;-75
2022/11/20 10:43:51;;;;;;;30.10;17.37;;;;;;;;;;5032472;28;20056;-77
2022/11/20 10:46:19;;;;;;;29.50;17.53;;;;;;;;;;5037223;28;20343;-75
2022/11/20 10:48:45;;;;;;;28.70;17.13;;;;;;;;;;5028653;28;20067;-77
2022/11/20 10:51:30;;;;;;;26.17;16.03;;;;;;;;;;5034330;28;20038;-77
2022/11/20 10:54:11;;;;;;;27.67;16.47;;;;;;;;;;5020974;28;20365;-77
2022/11/20 10:56:42;;;;;;;28.17;16.67;;;;;;;;;;5033452;28;20025;-76
2022/11/20 10:59:27;;;;;;;30.13;17.17;;;;;;;;;;5025665;28;20049;-77
2022/11/20 11:01:53;;;;;;;30.20;16.63;;;;;;;;;;5028369;28;20041;-77
2022/11/20 11:04:40;;;;;;;27.33;17.40;;;;;;;;;;5018818;28;20022;-77
2022/11/20 11:07:28;;;;;;;31.97;19.20;;;;;;;;;;5015803;28;20060;-77
2022/11/20 11:09:55;;;;;;;32.80;19.20;;;;;;;;;;5017095;28;20041;-76
2022/11/20 11:12:22;;;;;;;35.63;20.23;;;;;;;;;;5015511;28;20034;-76
2022/11/20 11:14:48;;;;;;;31.53;18.70;;;;;;;;;;5016095;28;20045;-76
2022/11/20 11:17:21;;;;;;;29.40;17.93;;;;;;;;;;5025519;28;20029;-76
2022/11/20 11:19:57;;;;;;;29.63;17.67;;;;;;;;;;5028516;28;20057;-75
2022/11/20 11:22:23;;;;;;;27.77;17.23;;;;;;;;;;5017249;28;20509;-76
2022/11/20 11:24:53;;;;;;;32.33;18.60;;;;;;;;;;5017996;28;20129;-77
2022/11/20 11:27:19;;;;;;;28.87;17.20;;;;;;;;;;5016447;28;20555;-77
2022/11/20 11:29:45;;;;;;;29.43;17.83;;;;;;;;;;5017528;28;20029;-77
2022/11/20 11:32:11;;;;;;;35.30;20.93;;;;;;;;;;5027183;28;20026;-77
2022/11/20 11:34:37;;;;;;;33.30;18.53;;;;;;;;;;5018274;28;20033;-76
2022/11/20 11:37:04;;;;;;;36.63;22.60;;;;;;;;;;5027892;28;20896;-76
2022/11/20 11:39:33;;;;;;;31.20;18.67;;;;;;;;;;5015757;28;20096;-76
2022/11/20 11:42:00;;;;;;;31.50;18.37;;;;;;;;;;5018244;28;20029;-76
2022/11/20 11:47:21;;;;;;;32.50;19.93;;;;;;;;;;5017830;28;20067;-76
2022/11/20 11:49:47;;;;;;;32.23;19.30;;;;;;;;;;5027941;28;20033;-77
2022/11/20 11:52:16;;;;;;;36.10;20.47;;;;;;;;;;5031034;28;20103;-77
2022/11/20 11:54:42;;;;;;;27.10;18.00;;;;;;;;;;5016316;28;20041;-78
2022/11/20 11:57:28;;;;;;;32.23;18.90;;;;;;;;;;5017911;28;20397;-77
2022/11/20 12:00:15;;;;;;;31.50;18.60;;;;;;;;;;5019273;28;20057;-76
2022/11/20 12:02:50;;;;;;;33.57;19.67;;;;;;;;;;5016370;28;20022;-76
2022/11/20 12:05:16;;;;;;;33.83;19.80;;;;;;;;;;5033905;28;20450;-76
2022/11/20 12:07:43;;;;;;;34.23;20.27;;;;;;;;;;5029851;28;20040;-78
2022/11/20 12:10:15;;;;;;;32.47;19.73;;;;;;;;;;5015047;28;20061;-77
2022/11/20 12:12:45;;;;;;;33.83;19.83;;;;;;;;;;5028937;28;20034;-77
2022/11/20 12:15:12;;;;;;;34.10;19.43;;;;;;;;;;5026983;28;20870;-76
2022/11/20 12:17:38;;;;;;;35.97;19.40;;;;;;;;;;5028708;28;20114;-77
2022/11/20 12:20:06;;;;;;;31.67;18.60;;;;;;;;;;5019807;28;20058;-76
2022/11/20 12:22:36;;;;;;;29.70;18.43;;;;;;;;;;5015285;28;20029;-76
2022/11/20 12:25:02;;;;;;;33.87;19.07;;;;;;;;;;5034148;28;20026;-76
2022/11/20 12:27:48;;;;;;;32.97;18.40;;;;;;;;;;5016909;28;20029;-76
2022/11/20 12:30:18;;;;;;;34.17;19.10;;;;;;;;;;5031016;28;20034;-77
2022/11/20 12:33:03;;;;;;;34.30;19.07;;;;;;;;;;5026017;28;20053;-76
2022/11/20 12:35:29;;;;;;;33.93;21.17;;;;;;;;;;5029465;28;20045;-78
2022/11/20 12:38:07;;;;;;;31.93;19.13;;;;;;;;;;5014745;28;20037;-77
2022/11/20 12:40:41;;;;;;;29.80;18.27;;;;;;;;;;5030826;28;20040;-75
2022/11/20 12:46:09;;;;;;;30.70;19.17;;;;;;;;;;5017936;28;20520;-78
2022/11/20 12:48:35;;;;;;;33.53;20.07;;;;;;;;;;5029859;28;20442;-76
2022/11/20 12:51:18;;;;;;;30.10;18.30;;;;;;;;;;5017282;28;20076;-77
2022/11/20 12:53:51;;;;;;;32.03;18.88;;;;;;;;;;5027658;28;20042;-76
2022/11/20 12:56:39;;;;;;;29.87;17.70;;;;;;;;;;5014174;28;20044;-76
2022/11/20 12:59:23;;;;;;;27.37;17.87;;;;;;;;;;5016497;28;20022;-78
2022/11/20 13:01:50;;;;;;;26.07;16.50;;;;;;;;;;5035235;28;20038;-77
2022/11/20 13:04:22;;;;;;;30.47;18.03;;;;;;;;;;5018257;28;20033;-76
2022/11/20 13:06:51;;;;;;;31.10;18.05;;;;;;;;;;5022177;28;20037;-76
2022/11/20 13:09:21;;;;;;;27.50;16.73;;;;;;;;;;5019172;28;20033;-76
2022/11/20 13:11:51;;;;;;;27.07;16.60;;;;;;;;;;5023170;28;20351;-77
2022/11/20 13:14:33;;;;;;;27.90;16.67;;;;;;;;;;5032307;28;20116;-77
2022/11/20 13:17:12;;;;;;;29.30;18.02;;;;;;;;;;5019139;28;20029;-76
2022/11/20 13:19:38;;;;;;;30.80;18.10;;;;;;;;;;5021867;28;20036;-76
2022/11/20 13:22:04;;;;;;;28.80;16.73;;;;;;;;;;5019668;28;20028;-77
2022/11/20 13:24:31;;;;;;;28.10;17.53;;;;;;;;;;5019577;28;20143;-75
2022/11/20 13:27:19;;;;;;;28.70;17.00;;;;;;;;;;5028708;28;20064;-77
2022/11/20 13:29:46;;;;;;;30.03;17.57;;;;;;;;;;5027992;28;20038;-76
2022/11/20 13:32:22;;;;;;;28.87;17.93;;;;;;;;;;5026139;28;20030;-77
2022/11/20 13:34:53;;;;;;;28.27;17.23;;;;;;;;;;5026581;28;20093;-77
2022/11/20 13:37:28;;;;;;;31.37;17.77;;;;;;;;;;5034600;28;20034;-76
2022/11/20 13:40:05;;;;;;;30.40;16.97;;;;;;;;;;5029468;28;20068;-75
2022/11/20 13:42:33;;;;;;;28.67;17.40;;;;;;;;;;5018237;28;20414;-77
2022/11/20 13:45:02;;;;;;;30.63;17.73;;;;;;;;;;5018690;28;20022;-76
2022/11/20 13:47:31;;;;;;;28.03;17.23;;;;;;;;;;5016535;28;20083;-76
2022/11/20 13:49:59;;;;;;;27.40;16.67;;;;;;;;;;5013009;28;20025;-77
2022/11/20 13:52:47;;;;;;;27.10;16.37;;;;;;;;;;5031032;28;20066;-76
2022/11/20 13:55:24;;;;;;;29.67;17.90;;;;;;;;;;5028851;28;20048;-75
2022/11/20 13:57:53;;;;;;;27.43;16.17;;;;;;;;;;5016216;28;21002;-77
2022/11/20 14:00:23;;;;;;;28.67;18.00;;;;;;;;;;5031909;28;20140;-75
2022/11/20 14:02:59;;;;;;;28.90;17.00;;;;;;;;;;5017387;28;20030;-76
2022/11/20 14:05:25;;;;;;;29.37;18.00;;;;;;;;;;5016918;28;20030;-76
2022/11/20 14:07:51;;;;;;;28.57;17.50;;;;;;;;;;5016257;28;20034;-75
2022/11/20 14:10:22;;;;;;;28.57;17.30;;;;;;;;;;5019356;28;20060;-75
2022/11/20 14:12:50;;;;;;;30.87;17.70;;;;;;;;;;5025715;28;20474;-77
2022/11/20 14:15:26;;;;;;;28.70;17.37;;;;;;;;;;5018475;28;20030;-76
2022/11/20 14:17:52;;;;;;;29.10;17.93;;;;;;;;;;5016269;28;20021;-77
2022/11/20 14:20:22;;;;;;;31.57;18.30;;;;;;;;;;5029457;28;20025;-76
2022/11/20 14:22:52;;;;;;;29.87;17.83;;;;;;;;;;5030544;28;20029;-76
2022/11/20 14:25:18;;;;;;;29.70;17.87;;;;;;;;;;5017842;28;20037;-77
2022/11/20 14:27:48;;;;;;;29.07;18.10;;;;;;;;;;5032993;28;20041;-76
2022/11/20 14:30:18;;;;;;;31.73;18.53;;;;;;;;;;5016480;28;20022;-78
2022/11/20 14:32:48;;;;;;;29.80;17.63;;;;;;;;;;5018034;28;20044;-78
2022/11/20 14:35:18;;;;;;;30.07;17.30;;;;;;;;;;5026697;28;20041;-76
2022/11/20 14:37:45;;;;;;;32.87;19.67;;;;;;;;;;5018495;28;20042;-77